createdAt,value
2023-04-22T00:02:17.236Z,8.05
2023-04-22T00:04:46.614Z,8.02
2023-04-22T00:07:14.877Z,7.98
2023-04-22T00:09:42.174Z,8.06
2023-04-22T00:12:09.175Z,8.00
2023-04-22T00:14:35.867Z,8.01
2023-04-22T00:17:02.849Z,8.01
2023-04-22T00:19:30.013Z,8.06
2023-04-22T00:21:56.670Z,8.12
2023-04-22T00:24:23.290Z,8.14
2023-04-22T00:26:50.000Z,8.08
2023-04-22T00:29:16.616Z,8.01
2023-04-22T00:31:43.341Z,7.89
2023-04-22T00:34:10.098Z,7.88
2023-04-22T00:36:36.863Z,7.89
2023-04-22T00:39:03.676Z,7.99
2023-04-22T00:41:31.282Z,8.00
2023-04-22T00:44:00.126Z,8.02
2023-04-22T00:46:26.889Z,8.01
2023-04-22T00:48:54.275Z,7.97
2023-04-22T00:51:20.910Z,7.97
2023-04-22T00:53:47.711Z,8.02
2023-04-22T00:56:14.516Z,8.00
2023-04-22T00:58:41.222Z,7.97
2023-04-22T01:01:07.905Z,7.93
2023-04-22T01:03:38.713Z,7.95
2023-04-22T01:06:05.749Z,7.91
2023-04-22T01:08:33.202Z,7.91
2023-04-22T01:11:00.297Z,7.91
2023-04-22T01:13:27.021Z,7.94
2023-04-22T01:15:54.859Z,7.97
2023-04-22T01:18:22.179Z,7.95
2023-04-22T01:20:49.542Z,7.99
2023-04-22T01:23:20.745Z,7.99
2023-04-22T01:25:48.741Z,8.01
2023-04-22T01:28:16.663Z,7.99
2023-04-22T01:30:44.144Z,7.94
2023-04-22T01:33:11.711Z,7.93
2023-04-22T01:35:39.174Z,7.91
2023-04-22T01:38:08.245Z,7.91
2023-04-22T01:40:35.380Z,7.86
2023-04-22T01:43:02.711Z,7.85
2023-04-22T01:45:30.008Z,7.80
2023-04-22T01:47:56.997Z,7.74
2023-04-22T01:50:24.215Z,7.69
2023-04-22T01:52:50.980Z,7.65
2023-04-22T01:55:17.598Z,7.63
2023-04-22T01:57:44.566Z,7.57
2023-04-22T02:00:11.808Z,7.51
2023-04-22T02:02:38.702Z,7.39
2023-04-22T02:05:07.236Z,7.27
2023-04-22T02:07:34.508Z,7.24
2023-04-22T02:10:02.116Z,7.18
2023-04-22T02:12:28.844Z,7.05
2023-04-22T02:14:55.526Z,6.96
2023-04-22T02:17:22.366Z,6.86
2023-04-22T02:19:49.096Z,6.75
2023-04-22T02:22:17.027Z,6.70
2023-04-22T02:24:43.687Z,6.61
2023-04-22T02:27:10.311Z,6.52
2023-04-22T02:29:37.025Z,6.41
2023-04-22T02:32:03.848Z,6.30
2023-04-22T02:34:30.547Z,6.24
2023-04-22T02:36:57.127Z,6.15
2023-04-22T02:39:25.419Z,6.09
2023-04-22T02:41:52.035Z,6.05
2023-04-22T02:44:18.738Z,5.96
2023-04-22T02:46:45.467Z,5.91
2023-04-22T02:49:12.313Z,5.77
2023-04-22T02:51:39.563Z,5.70
2023-04-22T02:54:06.232Z,5.63
2023-04-22T02:56:32.923Z,5.61
2023-04-22T02:58:59.519Z,5.47
2023-04-22T03:01:26.282Z,5.44
2023-04-22T03:03:53.389Z,5.44
2023-04-22T03:06:21.066Z,5.43
2023-04-22T03:08:47.763Z,5.39
2023-04-22T03:11:14.366Z,5.31
2023-04-22T03:13:41.039Z,5.32
2023-04-22T03:16:07.767Z,5.25
2023-04-22T03:18:34.363Z,5.27
2023-04-22T03:21:01.064Z,5.35
2023-04-22T03:23:27.710Z,5.35
2023-04-22T03:25:54.313Z,5.28
2023-04-22T03:28:20.971Z,5.24
2023-04-22T03:30:48.516Z,5.25
2023-04-22T03:33:15.198Z,5.31
2023-04-22T03:35:41.928Z,5.32
2023-04-22T03:38:08.613Z,5.26
2023-04-22T03:40:35.236Z,5.42
2023-04-22T03:43:03.648Z,5.46
2023-04-22T03:45:30.494Z,5.52
2023-04-22T03:47:57.165Z,5.54
2023-04-22T03:50:23.827Z,5.52
2023-04-22T03:52:50.448Z,5.49
2023-04-22T03:55:17.067Z,5.53
2023-04-22T03:57:43.699Z,5.60
2023-04-22T04:00:10.770Z,5.67
2023-04-22T04:02:37.576Z,5.78
2023-04-22T04:05:05.139Z,5.82
2023-04-22T04:07:31.878Z,5.88
2023-04-22T04:09:58.461Z,5.94
2023-04-22T04:12:25.025Z,5.94
2023-04-22T04:14:51.651Z,5.94
2023-04-22T04:17:18.267Z,5.96
2023-04-22T04:19:44.903Z,5.93
2023-04-22T04:22:11.568Z,5.98
2023-04-22T04:24:42.216Z,6.00
2023-04-22T04:27:09.092Z,6.04
2023-04-22T04:29:36.913Z,6.04
2023-04-22T04:32:04.967Z,6.05
2023-04-22T04:34:34.442Z,6.01
2023-04-22T04:37:01.092Z,5.99
2023-04-22T04:39:29.237Z,5.94
2023-04-22T04:41:58.614Z,5.92
2023-04-22T04:44:27.971Z,5.81
2023-04-22T04:46:55.012Z,5.74
2023-04-22T04:49:21.984Z,5.65
2023-04-22T04:51:49.226Z,5.56
2023-04-22T04:54:16.408Z,5.55
2023-04-22T04:56:43.539Z,5.52
2023-04-22T04:59:10.164Z,5.63
2023-04-22T05:01:36.858Z,5.62
2023-04-22T05:04:03.709Z,5.65
2023-04-22T05:06:31.454Z,5.60
2023-04-22T05:08:58.190Z,5.60
2023-04-22T05:11:24.819Z,5.56
2023-04-22T05:13:51.398Z,5.47
2023-04-22T05:16:18.096Z,5.41
2023-04-22T05:18:44.791Z,5.31
2023-04-22T05:21:11.446Z,5.28
2023-04-22T05:23:38.031Z,5.13
2023-04-22T05:26:04.763Z,5.00
2023-04-22T05:28:31.381Z,4.92
2023-04-22T05:30:58.109Z,4.96
2023-04-22T05:33:24.785Z,4.94
2023-04-22T05:35:52.415Z,4.98
2023-04-22T05:38:19.097Z,4.95
2023-04-22T05:40:45.801Z,5.00
2023-04-22T05:43:12.393Z,4.91
2023-04-22T05:45:39.125Z,4.86
2023-04-22T05:48:05.931Z,4.82
2023-04-22T05:50:32.684Z,4.79
2023-04-22T05:52:59.294Z,4.84
2023-04-22T05:55:25.957Z,4.86
2023-04-22T05:57:52.590Z,4.87
2023-04-22T06:00:19.360Z,4.78
2023-04-22T06:02:46.248Z,4.80
2023-04-22T06:05:13.182Z,4.79
2023-04-22T06:07:40.582Z,4.92
2023-04-22T06:10:08.126Z,4.96
2023-04-22T06:12:35.823Z,5.01
2023-04-22T06:15:02.537Z,5.04
2023-04-22T06:17:29.222Z,5.19
2023-04-22T06:19:55.886Z,5.28
2023-04-22T06:22:22.511Z,5.37
2023-04-22T06:24:49.161Z,5.43
2023-04-22T06:27:15.828Z,5.53
2023-04-22T06:29:42.463Z,5.59
2023-04-22T06:32:09.096Z,5.60
2023-04-22T06:34:35.734Z,5.60
2023-04-22T06:37:02.370Z,5.67
2023-04-22T06:39:28.952Z,5.70
2023-04-22T06:41:55.678Z,5.90
2023-04-22T06:44:22.465Z,5.97
2023-04-22T06:46:49.197Z,5.96
2023-04-22T06:49:15.814Z,6.00
2023-04-22T06:51:42.425Z,6.13
2023-04-22T06:54:09.312Z,6.15
2023-04-22T06:56:36.252Z,6.27
2023-04-22T06:59:02.958Z,6.41
2023-04-22T07:01:29.677Z,6.52
2023-04-22T07:03:56.481Z,6.63
2023-04-22T07:06:23.250Z,6.76
2023-04-22T07:08:49.878Z,6.91
2023-04-22T07:11:16.617Z,7.01
2023-04-22T07:13:43.242Z,6.97
2023-04-22T07:16:10.074Z,7.03
2023-04-22T07:18:36.927Z,7.06
2023-04-22T07:21:03.634Z,7.03
2023-04-22T07:23:30.284Z,6.97
2023-04-22T07:25:57.218Z,7.03
2023-04-22T07:28:23.870Z,7.03
2023-04-22T07:30:50.561Z,7.05
2023-04-22T07:33:17.194Z,7.08
2023-04-22T07:35:43.834Z,7.16
2023-04-22T07:38:12.128Z,7.20
2023-04-22T07:40:40.073Z,7.23
2023-04-22T07:43:06.763Z,7.25
2023-04-22T07:45:33.529Z,7.06
2023-04-22T07:48:00.355Z,7.16
2023-04-22T07:50:27.015Z,7.11
2023-04-22T07:52:53.706Z,7.21
2023-04-22T07:55:20.537Z,7.25
2023-04-22T07:57:47.202Z,7.35
2023-04-22T08:00:14.675Z,7.39
2023-04-22T08:02:42.099Z,7.48
2023-04-22T08:05:08.961Z,7.53
2023-04-22T08:07:35.703Z,7.65
2023-04-22T08:10:02.361Z,7.69
2023-04-22T08:12:28.973Z,7.86
2023-04-22T08:14:55.647Z,7.89
2023-04-22T08:17:23.045Z,7.86
2023-04-22T08:19:49.970Z,7.86
2023-04-22T08:22:18.546Z,7.83
2023-04-22T08:24:45.387Z,7.88
2023-04-22T08:27:12.241Z,7.88
2023-04-22T08:29:39.340Z,8.18
2023-04-22T08:32:06.188Z,8.41
2023-04-22T08:34:32.892Z,8.60
2023-04-22T08:36:59.563Z,8.70
2023-04-22T08:39:26.281Z,8.75
2023-04-22T08:41:54.011Z,8.73
2023-04-22T08:44:21.991Z,8.80
2023-04-22T08:46:49.313Z,8.88
2023-04-22T08:49:16.261Z,9.12
2023-04-22T08:51:44.227Z,9.11
2023-04-22T08:54:11.768Z,9.24
2023-04-22T08:56:43.917Z,9.31
2023-04-22T08:59:11.921Z,9.17
2023-04-22T09:01:42.038Z,9.39
2023-04-22T09:04:15.454Z,9.54
2023-04-22T09:06:42.168Z,9.65
2023-04-22T09:09:09.063Z,9.80
2023-04-22T09:11:36.398Z,9.75
2023-04-22T09:14:04.343Z,9.70
2023-04-22T09:16:32.204Z,9.66
2023-04-22T09:18:59.076Z,9.80
2023-04-22T09:21:29.665Z,9.68
2023-04-22T09:23:57.023Z,9.78
2023-04-22T09:26:26.463Z,9.70
2023-04-22T09:28:59.316Z,9.59
2023-04-22T09:31:26.152Z,9.76
2023-04-22T09:33:59.383Z,9.86
2023-04-22T09:36:30.384Z,10.00
2023-04-22T09:39:07.448Z,10.07
2023-04-22T09:41:35.462Z,10.14
2023-04-22T09:44:03.842Z,10.15
2023-04-22T09:46:31.661Z,10.31
2023-04-22T09:48:59.755Z,10.25
2023-04-22T09:51:27.910Z,10.37
2023-04-22T09:54:04.228Z,10.44
2023-04-22T09:56:42.284Z,10.79
2023-04-22T09:59:09.531Z,10.71
2023-04-22T10:01:41.484Z,10.86
2023-04-22T10:04:11.940Z,10.88
2023-04-22T10:06:38.591Z,10.98
2023-04-22T10:09:06.948Z,10.98
2023-04-22T10:11:35.274Z,10.99
2023-04-22T10:14:02.177Z,11.03
2023-04-22T10:16:32.257Z,10.95
2023-04-22T10:19:03.451Z,10.98
2023-04-22T10:21:31.825Z,11.00
2023-04-22T10:23:59.817Z,10.90
2023-04-22T10:26:43.114Z,10.92
2023-04-22T10:29:17.170Z,11.07
2023-04-22T10:31:45.068Z,11.26
2023-04-22T10:34:13.586Z,11.35
2023-04-22T10:37:13.677Z,11.40
2023-04-22T10:39:43.312Z,11.32
2023-04-22T10:42:15.799Z,11.46
2023-04-22T10:44:46.521Z,11.35
2023-04-22T10:47:28.040Z,11.41
2023-04-22T10:50:09.976Z,11.42
2023-04-22T10:52:37.045Z,11.49
2023-04-22T10:55:04.268Z,11.64
2023-04-22T10:57:43.107Z,11.62
2023-04-22T11:00:41.891Z,11.65
2023-04-22T11:03:18.178Z,11.67
2023-04-22T11:05:45.236Z,11.79
2023-04-22T11:08:14.980Z,11.55
2023-04-22T11:10:44.941Z,11.58
2023-04-22T11:13:17.588Z,11.62
2023-04-22T11:15:47.215Z,11.52
2023-04-22T11:18:19.493Z,11.61
2023-04-22T11:20:48.471Z,11.84
2023-04-22T11:23:24.409Z,11.98
2023-04-22T11:26:09.210Z,11.86
2023-04-22T11:28:36.496Z,11.97
2023-04-22T11:31:04.386Z,12.07
2023-04-22T11:33:33.212Z,11.98
2023-04-22T11:35:59.912Z,12.15
2023-04-22T11:38:26.744Z,12.03
2023-04-22T11:40:55.238Z,11.97
2023-04-22T11:43:21.905Z,11.85
2023-04-22T11:45:48.639Z,11.84
2023-04-22T11:48:16.719Z,11.91
2023-04-22T11:50:44.797Z,12.10
2023-04-22T11:53:19.925Z,12.10
2023-04-22T11:55:50.955Z,12.15
2023-04-22T11:58:26.686Z,12.28
2023-04-22T12:00:54.956Z,12.41
2023-04-22T12:03:26.999Z,12.32
2023-04-22T12:06:01.947Z,12.41
2023-04-22T12:08:33.778Z,12.37
2023-04-22T12:11:05.986Z,12.40
2023-04-22T12:13:38.742Z,12.26
2023-04-22T12:16:14.243Z,12.30
2023-04-22T12:18:48.502Z,12.25
2023-04-22T12:21:18.048Z,12.29
2023-04-22T12:23:49.425Z,12.23
2023-04-22T12:26:17.935Z,12.25
2023-04-22T12:28:46.039Z,12.26
2023-04-22T12:31:14.818Z,12.29
2023-04-22T12:33:41.611Z,12.55
2023-04-22T12:36:08.431Z,12.58
2023-04-22T12:38:35.340Z,12.59
2023-04-22T12:41:03.228Z,12.62
2023-04-22T12:43:32.255Z,12.48
2023-04-22T12:45:59.258Z,12.72
2023-04-22T12:48:25.930Z,12.81
2023-04-22T12:50:52.532Z,12.94
2023-04-22T12:53:22.002Z,12.99
2023-04-22T12:55:48.661Z,12.90
2023-04-22T12:58:15.967Z,12.92
2023-04-22T13:00:42.574Z,12.87
2023-04-22T13:03:09.318Z,13.01
2023-04-22T13:05:39.040Z,13.08
2023-04-22T13:08:08.353Z,13.10
2023-04-22T13:10:37.893Z,13.00
2023-04-22T13:13:17.987Z,13.06
2023-04-22T13:15:54.597Z,13.18
2023-04-22T13:18:25.719Z,13.04
2023-04-22T13:20:57.134Z,13.06
2023-04-22T13:23:34.752Z,12.96
2023-04-22T13:26:06.330Z,12.92
2023-04-22T13:28:33.048Z,13.06
2023-04-22T13:30:59.638Z,12.91
2023-04-22T13:33:26.210Z,13.03
2023-04-22T13:35:52.905Z,12.97
2023-04-22T13:38:19.536Z,13.25
2023-04-22T13:40:46.133Z,13.11
2023-04-22T13:43:12.799Z,12.89
2023-04-22T13:45:40.270Z,12.97
2023-04-22T13:48:07.020Z,13.08
2023-04-22T13:50:34.242Z,13.11
2023-04-22T13:53:00.882Z,13.04
2023-04-22T13:55:27.574Z,13.18
2023-04-22T13:57:54.194Z,13.19
2023-04-22T14:00:21.225Z,13.31
2023-04-22T14:02:48.194Z,13.20
2023-04-22T14:05:16.567Z,13.35
2023-04-22T14:07:43.729Z,13.38
2023-04-22T14:10:12.198Z,13.26
2023-04-22T14:12:39.400Z,13.25
2023-04-22T14:15:06.629Z,13.10
2023-04-22T14:17:33.685Z,13.20
2023-04-22T14:20:00.371Z,13.30
2023-04-22T14:22:26.977Z,13.23
2023-04-22T14:24:54.357Z,13.41
2023-04-22T14:27:20.954Z,13.43
2023-04-22T14:29:52.502Z,13.50
2023-04-22T14:32:20.278Z,13.44
2023-04-22T14:34:47.071Z,13.35
2023-04-22T14:37:14.319Z,13.09
2023-04-22T14:39:41.704Z,13.11
2023-04-22T14:42:08.662Z,13.08
2023-04-22T14:44:35.924Z,13.28
2023-04-22T14:47:02.736Z,13.48
2023-04-22T14:49:30.555Z,13.55
2023-04-22T14:52:00.864Z,13.50
2023-04-22T14:54:28.075Z,13.39
2023-04-22T14:56:56.015Z,13.31
2023-04-22T14:59:22.699Z,13.36
2023-04-22T15:01:49.525Z,13.39
2023-04-22T15:04:16.704Z,13.20
2023-04-22T15:06:43.363Z,13.28
2023-04-22T15:09:10.080Z,13.32
2023-04-22T15:11:36.941Z,13.24
2023-04-22T15:14:03.625Z,13.28
2023-04-22T15:16:30.417Z,13.41
2023-04-22T15:18:57.181Z,13.37
2023-04-22T15:21:23.850Z,13.28
2023-04-22T15:23:50.535Z,13.35
2023-04-22T15:26:17.372Z,13.24
2023-04-22T15:28:43.973Z,13.31
2023-04-22T15:31:10.652Z,13.37
2023-04-22T15:33:38.798Z,13.37
2023-04-22T15:36:06.952Z,13.32
2023-04-22T15:38:33.562Z,13.15
2023-04-22T15:41:00.218Z,13.25
2023-04-22T15:43:27.223Z,13.11
2023-04-22T15:45:57.013Z,13.08
2023-04-22T15:48:23.707Z,13.11
2023-04-22T15:50:50.368Z,13.27
2023-04-22T15:53:16.977Z,13.11
2023-04-22T15:55:43.595Z,13.17
2023-04-22T15:58:10.229Z,13.24
2023-04-22T16:00:37.195Z,13.24
2023-04-22T16:03:04.314Z,13.17
2023-04-22T16:05:31.055Z,13.17
2023-04-22T16:07:57.681Z,13.31
2023-04-22T16:10:26.348Z,13.27
2023-04-22T16:12:52.930Z,13.27
2023-04-22T16:15:19.598Z,13.27
2023-04-22T16:17:46.394Z,13.17
2023-04-22T16:20:14.296Z,13.25
2023-04-22T16:22:40.934Z,13.16
2023-04-22T16:25:08.475Z,13.10
2023-04-22T16:27:35.148Z,13.14
2023-04-22T16:30:02.024Z,13.25
2023-04-22T16:32:28.715Z,13.23
2023-04-22T16:34:55.966Z,13.16
2023-04-22T16:37:22.612Z,13.13
2023-04-22T16:39:49.614Z,13.18
2023-04-22T16:42:16.277Z,13.14
2023-04-22T16:44:42.881Z,13.02
2023-04-22T16:47:09.590Z,12.95
2023-04-22T16:49:36.264Z,12.94
2023-04-22T16:52:03.640Z,12.83
2023-04-22T16:54:30.320Z,12.86
2023-04-22T16:56:57.564Z,12.85
2023-04-22T16:59:24.184Z,12.92
2023-04-22T17:01:50.970Z,12.81
2023-04-22T17:04:17.909Z,12.84
2023-04-22T17:06:45.867Z,12.75
2023-04-22T17:09:12.469Z,12.72
2023-04-22T17:11:39.203Z,12.87
2023-04-22T17:14:05.808Z,12.90
2023-04-22T17:16:32.600Z,12.86
2023-04-22T17:18:59.255Z,12.78
2023-04-22T17:21:27.092Z,12.85
2023-04-22T17:23:53.751Z,12.81
2023-04-22T17:26:20.922Z,12.77
2023-04-22T17:28:47.482Z,12.69
2023-04-22T17:31:14.296Z,12.50
2023-04-22T17:33:41.240Z,12.42
2023-04-22T17:36:08.271Z,12.30
2023-04-22T17:38:35.500Z,11.95
2023-04-22T17:41:02.153Z,11.61
2023-04-22T17:43:28.775Z,11.56
2023-04-22T17:45:55.492Z,11.41
2023-04-22T17:48:22.370Z,11.29
2023-04-22T17:50:49.357Z,11.14
2023-04-22T17:53:16.233Z,11.05
2023-04-22T17:55:42.856Z,11.00
2023-04-22T17:58:09.633Z,11.02
2023-04-22T18:00:37.407Z,11.01
2023-04-22T18:03:05.971Z,11.00
2023-04-22T18:05:32.796Z,11.05
2023-04-22T18:08:02.944Z,11.05
2023-04-22T18:10:30.468Z,11.06
2023-04-22T18:12:57.103Z,11.02
2023-04-22T18:15:23.945Z,11.03
2023-04-22T18:17:51.249Z,11.06
2023-04-22T18:20:19.601Z,11.06
2023-04-22T18:22:52.048Z,11.07
2023-04-22T18:25:18.794Z,11.03
2023-04-22T18:27:45.540Z,10.99
2023-04-22T18:30:12.390Z,10.93
2023-04-22T18:32:39.342Z,10.91
2023-04-22T18:35:06.570Z,10.86
2023-04-22T18:37:34.683Z,10.85
2023-04-22T18:40:02.523Z,10.78
2023-04-22T18:42:29.267Z,10.77
2023-04-22T18:44:56.005Z,10.71
2023-04-22T18:47:22.695Z,10.61
2023-04-22T18:49:49.381Z,10.65
2023-04-22T18:52:17.194Z,10.66
2023-04-22T18:54:44.150Z,10.56
2023-04-22T18:57:11.012Z,10.52
2023-04-22T18:59:37.640Z,10.41
2023-04-22T19:02:04.502Z,10.41
2023-04-22T19:04:31.579Z,10.40
2023-04-22T19:06:59.289Z,10.35
2023-04-22T19:09:26.108Z,10.32
2023-04-22T19:11:53.036Z,10.32
2023-04-22T19:14:19.724Z,10.29
2023-04-22T19:16:46.413Z,10.26
2023-04-22T19:19:12.994Z,10.18
2023-04-22T19:21:39.701Z,10.12
2023-04-22T19:24:06.807Z,10.10
2023-04-22T19:26:33.912Z,10.06
2023-04-22T19:29:00.658Z,10.07
2023-04-22T19:31:30.901Z,10.01
2023-04-22T19:33:58.007Z,9.98
2023-04-22T19:36:24.672Z,9.98
2023-04-22T19:38:51.312Z,10.00
2023-04-22T19:41:17.947Z,10.01
2023-04-22T19:43:44.605Z,10.00
2023-04-22T19:46:11.783Z,9.97
2023-04-22T19:48:38.759Z,9.93
2023-04-22T19:51:06.226Z,9.88
2023-04-22T19:53:33.747Z,9.94
2023-04-22T19:56:00.510Z,9.91
2023-04-22T19:58:28.412Z,9.89
2023-04-22T20:00:55.463Z,9.86
2023-04-22T20:03:22.806Z,9.79
2023-04-22T20:05:50.382Z,9.76
2023-04-22T20:08:19.867Z,9.75
2023-04-22T20:10:49.382Z,9.73
2023-04-22T20:13:17.315Z,9.73
2023-04-22T20:15:44.537Z,9.62
2023-04-22T20:18:11.889Z,9.61
2023-04-22T20:20:40.432Z,9.49
2023-04-22T20:23:10.565Z,9.50
2023-04-22T20:25:47.102Z,9.48
2023-04-22T20:28:14.262Z,9.44
2023-04-22T20:30:41.057Z,9.35
2023-04-22T20:33:08.071Z,9.33
2023-04-22T20:35:36.038Z,9.29
2023-04-22T20:38:03.731Z,9.33
2023-04-22T20:40:30.906Z,9.34
2023-04-22T20:42:58.920Z,9.34
2023-04-22T20:45:27.210Z,9.37
2023-04-22T20:47:53.915Z,9.33
2023-04-22T20:50:23.627Z,9.27
2023-04-22T20:52:50.227Z,9.24
2023-04-22T20:55:17.187Z,9.26
2023-04-22T20:57:43.985Z,9.23
2023-04-22T21:00:11.440Z,9.22
2023-04-22T21:02:39.794Z,9.20
2023-04-22T21:05:07.068Z,9.18
2023-04-22T21:07:35.397Z,9.18
2023-04-22T21:10:02.222Z,9.20
2023-04-22T21:12:29.181Z,9.17
2023-04-22T21:14:56.258Z,9.12
2023-04-22T21:17:29.829Z,9.09
2023-04-22T21:19:58.129Z,9.11
2023-04-22T21:22:25.690Z,9.10
2023-04-22T21:24:52.895Z,9.02
2023-04-22T21:27:22.079Z,9.03
2023-04-22T21:29:49.968Z,8.95
2023-04-22T21:32:17.690Z,8.99
2023-04-22T21:34:45.162Z,8.99
2023-04-22T21:37:12.481Z,8.88
2023-04-22T21:39:40.391Z,8.88
2023-04-22T21:42:10.032Z,8.94
2023-04-22T21:44:37.756Z,8.93
2023-04-22T21:47:05.959Z,8.92
2023-04-22T21:49:32.758Z,8.97
2023-04-22T21:51:59.806Z,8.89
2023-04-22T21:54:26.463Z,8.90
2023-04-22T21:56:53.212Z,8.80
2023-04-22T21:59:19.922Z,8.78
2023-04-22T22:01:47.341Z,8.80
2023-04-22T22:04:15.912Z,8.78
2023-04-22T22:06:44.012Z,8.73
2023-04-22T22:09:11.648Z,8.70
2023-04-22T22:11:38.299Z,8.72
2023-04-22T22:14:05.132Z,8.61
2023-04-22T22:16:33.601Z,8.63
2023-04-22T22:19:02.644Z,8.64
2023-04-22T22:21:29.606Z,8.66
2023-04-22T22:23:57.613Z,8.62
2023-04-22T22:26:24.687Z,8.59
2023-04-22T22:28:51.586Z,8.60
2023-04-22T22:31:21.301Z,8.52
2023-04-22T22:33:48.834Z,8.52
2023-04-22T22:36:16.136Z,8.48
2023-04-22T22:38:42.893Z,8.51
2023-04-22T22:41:09.480Z,8.48
2023-04-22T22:43:36.095Z,8.50
2023-04-22T22:46:03.532Z,8.46
2023-04-22T22:48:30.582Z,8.46
2023-04-22T22:50:57.197Z,8.47
2023-04-22T22:53:24.197Z,8.47
2023-04-22T22:55:51.007Z,8.37
2023-04-22T22:58:17.635Z,8.34
2023-04-22T23:00:44.296Z,8.35
2023-04-22T23:03:11.197Z,8.43
2023-04-22T23:05:38.820Z,8.42
2023-04-22T23:08:05.821Z,8.53
2023-04-22T23:10:32.533Z,8.50
2023-04-22T23:12:59.132Z,8.53
2023-04-22T23:15:26.428Z,8.58
2023-04-22T23:17:53.274Z,8.60
2023-04-22T23:20:20.496Z,8.63
2023-04-22T23:22:49.659Z,8.62
2023-04-22T23:25:16.860Z,8.61
2023-04-22T23:27:44.197Z,8.54
2023-04-22T23:30:11.294Z,8.61
2023-04-22T23:32:40.175Z,8.45
2023-04-22T23:35:08.432Z,8.47
2023-04-22T23:37:37.714Z,8.46
2023-04-22T23:40:04.930Z,8.52
2023-04-22T23:42:31.620Z,8.48
2023-04-22T23:44:58.223Z,8.44
2023-04-22T23:47:25.650Z,8.50
2023-04-22T23:49:52.260Z,8.52
2023-04-22T23:52:19.473Z,8.43
2023-04-22T23:54:46.520Z,8.44
2023-04-22T23:57:13.432Z,8.41
2023-04-22T23:59:40.330Z,8.39
